Time;durP1;ratioP1;P1;durP2;ratioP2;P2;SDS_P1;SDS_P2;PMS_P1;PMS_P2;Temp;Humidity;BMP_temperature;BMP_pressure;BME280_temperature;BME280_humidity;BME280_pressure;Samples;Min_cycle;Max_cycle;Signal;HPM_P1;HPM_P2
2022/08/07 00:00:39;;;;;;;5.22;3.70;;;;;;;13.23;84.40;102742.69;5018624;28;20033;-78
2022/08/07 00:03:04;;;;;;;4.45;3.10;;;;;;;13.22;84.79;102747.13;5015711;28;20499;-78
2022/08/07 00:05:30;;;;;;;5.70;3.60;;;;;;;13.21;84.83;102747.16;5018986;28;20538;-79
2022/08/07 00:07:56;;;;;;;3.65;3.10;;;;;;;13.19;84.58;102741.91;5017650;28;20041;-78
2022/08/07 00:10:22;;;;;;;4.65;3.28;;;;;;;13.17;84.63;102739.28;5017725;28;20026;-78
2022/08/07 00:12:48;;;;;;;3.80;3.10;;;;;;;13.16;84.85;102745.50;5003761;28;20060;-78
2022/08/07 00:15:14;;;;;;;8.93;3.40;;;;;;;13.13;84.67;102734.94;5017764;28;20135;-79
2022/08/07 00:17:40;;;;;;;6.97;4.10;;;;;;;13.12;84.64;102740.28;4966230;28;20037;-78
2022/08/07 00:20:06;;;;;;;11.10;5.57;;;;;;;13.08;84.88;102736.84;5018096;28;20095;-78
2022/08/07 00:22:31;;;;;;;11.77;6.22;;;;;;;13.07;85.03;102739.56;5017721;28;20128;-78
2022/08/07 00:24:57;;;;;;;10.30;5.70;;;;;;;13.06;85.09;102729.84;5016822;28;20033;-78
2022/08/07 00:27:23;;;;;;;10.05;5.28;;;;;;;13.04;85.44;102738.69;5017868;28;20468;-78
2022/08/07 00:29:48;;;;;;;8.75;4.50;;;;;;;13.02;85.39;102737.03;5015724;28;20095;-78
2022/08/07 00:32:14;;;;;;;5.88;3.65;;;;;;;13.00;85.21;102730.84;5017716;28;20033;-78
2022/08/07 00:34:40;;;;;;;5.70;3.15;;;;;;;12.95;85.87;102725.66;4982512;28;20036;-78
2022/08/07 00:37:05;;;;;;;4.78;3.25;;;;;;;12.94;86.16;102734.53;5017611;28;20045;-78
2022/08/07 00:39:32;;;;;;;4.82;3.45;;;;;;;12.93;86.05;102742.56;5017739;28;20041;-78
2022/08/07 00:41:58;;;;;;;3.75;2.90;;;;;;;12.88;86.14;102737.34;5017884;28;20033;-78
2022/08/07 00:44:24;;;;;;;3.92;2.72;;;;;;;12.87;86.54;102733.81;5002913;28;20558;-78
2022/08/07 00:46:50;;;;;;;4.03;2.80;;;;;;;12.87;87.16;102731.16;5017656;28;20045;-78
2022/08/07 00:49:17;;;;;;;4.90;3.25;;;;;;;12.85;86.75;102735.66;5017747;28;20052;-78
2022/08/07 00:51:42;;;;;;;5.32;2.70;;;;;;;12.84;86.99;102733.91;5016967;28;20061;-78
2022/08/07 00:54:09;;;;;;;4.70;3.20;;;;;;;12.82;86.85;102722.44;5008531;28;20559;-77
2022/08/07 00:56:35;;;;;;;4.50;2.80;;;;;;;12.82;87.14;102729.53;5028309;28;20053;-78
2022/08/07 00:59:04;;;;;;;5.07;3.13;;;;;;;12.80;87.36;102726.91;5029445;28;20044;-78
2022/08/07 01:01:30;;;;;;;4.38;2.67;;;;;;;12.81;87.39;102728.66;5017965;28;20099;-79
2022/08/07 01:03:55;;;;;;;4.25;2.90;;;;;;;12.79;87.35;102730.47;5013950;28;20487;-78
2022/08/07 01:06:21;;;;;;;3.70;2.70;;;;;;;12.77;87.55;102719.88;5020862;28;20487;-78
2022/08/07 01:08:47;;;;;;;4.78;3.08;;;;;;;12.76;87.84;102725.25;5011801;28;20487;-78
2022/08/07 01:11:13;;;;;;;4.70;3.25;;;;;;;12.74;87.85;102727.06;5029159;28;20094;-78
2022/08/07 01:13:39;;;;;;;4.88;3.10;;;;;;;12.73;88.06;102720.88;5004222;28;20069;-78
2022/08/07 01:16:05;;;;;;;5.35;3.58;;;;;;;12.72;88.47;102721.81;5003526;28;20129;-78
2022/08/07 01:18:34;;;;;;;5.88;3.60;;;;;;;12.73;88.63;102717.34;5034090;28;20099;-78
2022/08/07 01:21:02;;;;;;;6.20;3.83;;;;;;;12.76;89.09;102717.28;5030741;28;20037;-79
2022/08/07 01:23:28;;;;;;;5.68;3.60;;;;;;;12.75;88.38;102723.50;5024346;28;20052;-78
2022/08/07 01:25:53;;;;;;;5.78;3.30;;;;;;;12.73;88.68;102723.53;5011790;28;20037;-78
2022/08/07 01:28:20;;;;;;;6.32;3.45;;;;;;;12.72;88.31;102721.81;5010416;28;20506;-78
2022/08/07 01:30:46;;;;;;;5.80;3.25;;;;;;;12.72;88.26;102720.91;5014975;28;20017;-78
2022/08/07 01:33:11;;;;;;;4.25;2.90;;;;;;;12.70;88.62;102722.75;5009989;28;20044;-78
2022/08/07 01:35:37;;;;;;;6.13;3.40;;;;;;;12.69;89.20;102710.38;5032005;28;20501;-78
2022/08/07 01:38:06;;;;;;;5.53;3.05;;;;;;;12.71;88.70;102714.75;5008557;28;20055;-78
2022/08/07 01:40:32;;;;;;;4.53;3.17;;;;;;;12.71;88.99;102712.09;5032377;28;20029;-79
2022/08/07 01:42:57;;;;;;;5.10;2.80;;;;;;;12.70;88.75;102706.81;5029502;28;20025;-79
2022/08/07 01:45:23;;;;;;;5.07;3.40;;;;;;;12.74;89.08;102713.75;5033192;28;20041;-78
2022/08/07 01:47:51;;;;;;;4.97;3.13;;;;;;;12.76;88.85;102711.97;5016843;28;20026;-78
2022/08/07 01:50:17;;;;;;;5.43;3.50;;;;;;;12.77;88.84;102711.06;5025127;28;20490;-78
2022/08/07 01:52:44;;;;;;;5.72;3.80;;;;;;;12.78;89.48;102704.81;5017540;28;20021;-78
2022/08/07 01:55:10;;;;;;;6.20;4.03;;;;;;;12.79;89.67;102711.88;5030566;28;20049;-78
2022/08/07 01:57:38;;;;;;;5.95;4.25;;;;;;;12.82;90.08;102700.28;5013054;28;21381;-79
2022/08/07 02:00:07;;;;;;;5.47;4.38;;;;;;;12.81;90.24;102710.03;5031958;28;20593;-78
2022/08/07 02:02:41;;;;;;;8.63;4.80;;;;;;;12.82;90.97;102698.53;5018398;28;20061;-78
2022/08/07 02:05:13;;;;;;;8.55;5.00;;;;;;;12.83;91.21;102697.63;5023705;28;20044;-79
2022/08/07 02:07:45;;;;;;;9.38;5.10;;;;;;;12.80;90.18;102700.31;5026847;28;20373;-78
2022/08/07 02:10:11;;;;;;;7.13;4.60;;;;;;;12.79;90.50;102695.94;5021389;28;20553;-78
2022/08/07 02:12:38;;;;;;;8.52;4.55;;;;;;;12.79;90.76;102695.94;5020953;28;20055;-78
2022/08/07 02:15:04;;;;;;;6.13;4.32;;;;;;;12.74;90.23;102697.81;5006422;28;20021;-79
2022/08/07 02:17:30;;;;;;;6.95;4.20;;;;;;;12.71;90.30;102698.81;5016745;28;20060;-78
2022/08/07 02:19:58;;;;;;;6.53;4.05;;;;;;;12.68;90.20;102698.84;5016919;28;20529;-78
2022/08/07 02:22:24;;;;;;;5.90;3.95;;;;;;;12.65;90.38;102692.75;5017337;28;20264;-78
2022/08/07 02:24:52;;;;;;;5.90;3.78;;;;;;;12.63;90.47;102695.44;5019321;28;20033;-79
2022/08/07 02:27:19;;;;;;;5.97;3.65;;;;;;;12.59;90.61;102691.13;5036462;28;20103;-78
2022/08/07 02:29:45;;;;;;;5.35;4.03;;;;;;;12.58;90.95;102689.38;4992610;28;20043;-78
2022/08/07 02:32:11;;;;;;;5.40;3.92;;;;;;;12.55;90.76;102679.69;5033786;28;20057;-78
2022/08/07 02:34:38;;;;;;;8.32;4.00;;;;;;;12.54;91.70;102691.25;4991355;28;20053;-78
2022/08/07 02:37:07;;;;;;;6.70;4.43;;;;;;;12.49;91.20;102687.81;5015810;28;20126;-78
2022/08/07 02:39:35;;;;;;;6.78;4.00;;;;;;;12.46;91.65;102687.88;5008266;28;20033;-78
2022/08/07 02:42:01;;;;;;;7.05;4.15;;;;;;;12.43;91.44;102695.94;5003813;28;20043;-77
2022/08/07 02:44:28;;;;;;;6.25;4.10;;;;;;;12.40;91.56;102688.03;5025708;28;20035;-78
2022/08/07 02:46:56;;;;;;;7.53;4.68;;;;;;;12.40;92.35;102682.72;5003074;28;20029;-78
2022/08/07 02:49:21;;;;;;;6.93;4.38;;;;;;;12.38;91.93;102682.78;5019657;28;20437;-78
2022/08/07 02:51:47;;;;;;;9.38;4.85;;;;;;;12.36;91.95;102687.22;5036887;28;20090;-78
2022/08/07 02:54:14;;;;;;;6.03;4.35;;;;;;;12.33;92.03;102685.50;5028833;28;20044;-79
2022/08/07 02:56:40;;;;;;;7.32;4.30;;;;;;;12.32;92.54;102685.56;5024762;28;20403;-78
2022/08/07 02:59:09;;;;;;;6.30;4.15;;;;;;;12.29;92.05;102686.50;5022767;28;20046;-78
2022/08/07 03:01:37;;;;;;;5.95;4.28;;;;;;;12.27;91.91;102683.03;5021665;28;20091;-80
2022/08/07 03:04:08;;;;;;;6.07;4.03;;;;;;;12.27;92.38;102671.50;5005375;28;20194;-79
2022/08/07 03:06:34;;;;;;;6.25;3.90;;;;;;;12.26;92.76;102680.41;4977349;28;20117;-79
2022/08/07 03:09:01;;;;;;;6.65;4.65;;;;;;;12.25;93.08;102676.84;5002944;28;20037;-79
2022/08/07 03:11:27;;;;;;;5.63;3.90;;;;;;;12.27;93.34;102677.72;5021745;28;20030;-79
2022/08/07 03:13:52;;;;;;;8.23;4.13;;;;;;;12.27;93.35;102676.81;5001375;28;20044;-79
2022/08/07 03:16:19;;;;;;;8.40;4.50;;;;;;;12.23;93.26;102676.03;5019760;28;20376;-79
2022/08/07 03:18:44;;;;;;;5.90;3.67;;;;;;;12.20;93.03;102676.97;5016176;28;20124;-79
2022/08/07 03:21:10;;;;;;;6.38;4.47;;;;;;;12.18;93.63;102670.81;5006030;28;20041;-79
2022/08/07 03:23:38;;;;;;;5.80;3.88;;;;;;;12.15;93.51;102670.88;5005403;28;20055;-79
2022/08/07 03:26:04;;;;;;;6.60;3.50;;;;;;;12.12;93.50;102665.66;5017307;28;20092;-78
2022/08/07 03:28:30;;;;;;;6.85;4.57;;;;;;;12.13;93.88;102667.41;5000382;28;20143;-79
2022/08/07 03:31:17;;;;;;;5.90;4.20;;;;;;;12.11;94.14;102673.66;5022197;28;20067;-79
2022/08/07 03:33:41;;;;;;;11.25;4.55;;;;;;;12.08;94.49;102672.81;4985553;28;20038;-79
2022/08/07 03:36:08;;;;;;;6.70;3.97;;;;;;;12.12;94.89;102675.38;5006827;28;20582;-79
2022/08/07 03:38:34;;;;;;;7.60;4.30;;;;;;;12.12;95.46;102672.72;5003768;28;20043;-78
2022/08/07 03:41:00;;;;;;;5.50;3.95;;;;;;;12.09;94.80;102668.38;5007243;28;20017;-77
2022/08/07 03:43:26;;;;;;;5.72;3.85;;;;;;;12.07;95.06;102663.09;5021260;28;20030;-78
2022/08/07 03:45:52;;;;;;;6.70;4.07;;;;;;;12.07;94.92;102670.19;4989717;28;20033;-77
2022/08/07 03:48:17;;;;;;;6.68;4.30;;;;;;;12.07;95.07;102668.41;5021054;28;20044;-78
2022/08/07 03:50:44;;;;;;;6.20;4.45;;;;;;;12.09;96.16;102671.00;5014324;28;20038;-78
2022/08/07 03:53:10;;;;;;;6.05;4.13;;;;;;;12.08;96.24;102670.16;5015603;28;20037;-78
2022/08/07 03:55:36;;;;;;;6.60;4.80;;;;;;;12.09;96.46;102663.94;5040259;28;20053;-78
2022/08/07 03:58:02;;;;;;;7.53;4.20;;;;;;;12.09;96.35;102669.25;5030840;28;20034;-78
2022/08/07 04:00:28;;;;;;;6.85;4.32;;;;;;;12.10;96.79;102670.13;5019832;28;20033;-78
2022/08/07 04:02:54;;;;;;;6.60;4.40;;;;;;;12.10;96.75;102664.81;4981147;28;20570;-78
2022/08/07 04:05:21;;;;;;;6.25;4.15;;;;;;;12.11;96.70;102669.22;5019169;28;20036;-78
2022/08/07 04:07:47;;;;;;;6.40;4.50;;;;;;;12.12;96.70;102678.03;5018366;28;20058;-78
2022/08/07 04:10:13;;;;;;;5.88;4.25;;;;;;;12.09;96.68;102668.38;4999623;28;20041;-78
2022/08/07 04:12:39;;;;;;;7.20;4.50;;;;;;;12.09;97.06;102671.91;5005671;28;20025;-78
2022/08/07 04:15:05;;;;;;;5.85;3.83;;;;;;;12.07;96.83;102668.41;4981868;28;20112;-79
2022/08/07 04:17:30;;;;;;;6.57;3.83;;;;;;;12.06;97.19;102671.09;5001006;28;20037;-79
2022/08/07 04:19:56;;;;;;;6.03;3.70;;;;;;;12.06;97.11;102671.09;5017985;28;20377;-79
2022/08/07 04:22:23;;;;;;;5.32;3.58;;;;;;;12.03;97.44;102661.41;5004932;28;20053;-78
2022/08/07 04:24:49;;;;;;;6.47;4.35;;;;;;;12.05;98.24;102654.28;5015937;28;20094;-79
2022/08/07 04:27:15;;;;;;;6.85;4.05;;;;;;;12.04;98.44;102665.81;5001211;28;20029;-78
2022/08/07 04:29:42;;;;;;;6.25;4.05;;;;;;;12.05;98.38;102661.41;5017201;28;20033;-79
2022/08/07 04:32:08;;;;;;;7.38;4.43;;;;;;;12.04;98.92;102665.81;5018806;28;20033;-79
2022/08/07 04:34:35;;;;;;;7.38;4.30;;;;;;;12.04;98.71;102660.50;5004388;28;20412;-79
2022/08/07 04:37:01;;;;;;;6.32;4.05;;;;;;;12.04;98.67;102664.97;5019278;28;20033;-79
2022/08/07 04:39:28;;;;;;;6.82;4.45;;;;;;;12.02;98.50;102664.97;4983854;28;20049;-79
2022/08/07 04:41:53;;;;;;;7.65;4.07;;;;;;;12.00;98.40;102665.91;4984486;28;20458;-79
2022/08/07 04:44:19;;;;;;;8.77;3.90;;;;;;;12.00;98.13;102661.47;4984735;28;20034;-78
2022/08/07 04:46:54;;;;;;;5.72;4.00;;;;;;;11.99;98.21;102661.50;5019149;28;20288;-79
2022/08/07 04:49:20;;;;;;;5.47;3.80;;;;;;;11.99;98.34;102669.47;5014427;28;20569;-78
2022/08/07 04:51:58;;;;;;;6.63;4.22;;;;;;;11.99;98.31;102667.66;5018533;28;20024;-78
2022/08/07 04:54:35;;;;;;;6.57;4.38;;;;;;;11.99;98.62;102672.97;5018501;28;20935;-78
2022/08/07 04:57:04;;;;;;;7.15;4.03;;;;;;;12.01;98.25;102663.22;5002299;28;20519;-77
2022/08/07 04:59:36;;;;;;;6.57;4.22;;;;;;;12.04;98.22;102664.97;4996732;28;20045;-78
2022/08/07 05:02:46;;;;;;;5.63;4.13;;;;;;;12.06;98.63;102669.34;4999784;28;20042;-78
2022/08/07 05:05:25;;;;;;;5.85;3.75;;;;;;;12.09;98.44;102666.59;5018798;28;20061;-78
2022/08/07 05:08:02;;;;;;;6.68;3.80;;;;;;;12.15;98.77;102659.41;5018293;28;20481;-79
2022/08/07 05:10:34;;;;;;;6.35;3.90;;;;;;;12.18;98.16;102661.97;5004225;28;20042;-78
2022/08/07 05:13:15;;;;;;;5.90;3.85;;;;;;;12.21;97.99;102659.25;5000601;28;20033;-78
2022/08/07 05:15:45;;;;;;;5.35;3.45;;;;;;;12.25;97.71;102663.56;5018627;28;20026;-79
2022/08/07 05:18:27;;;;;;;4.45;3.45;;;;;;;12.30;97.75;102666.13;5014025;28;20121;-78
2022/08/07 05:20:56;;;;;;;5.25;3.58;;;;;;;12.34;97.72;102665.16;5004049;28;20026;-79
2022/08/07 05:23:25;;;;;;;4.75;3.50;;;;;;;12.42;97.48;102672.94;5018379;28;20033;-78
2022/08/07 05:25:51;;;;;;;6.28;3.88;;;;;;;12.46;97.01;102671.94;5020424;28;20025;-78
2022/08/07 05:28:17;;;;;;;5.80;3.88;;;;;;;12.54;97.16;102677.97;5000231;28;20033;-79
2022/08/07 05:30:43;;;;;;;5.85;3.65;;;;;;;12.58;96.71;102674.28;5018802;28;20047;-78
2022/08/07 05:33:12;;;;;;;5.50;3.75;;;;;;;12.66;96.44;102673.22;5018671;28;20468;-79
2022/08/07 05:35:38;;;;;;;5.55;3.65;;;;;;;12.72;96.64;102670.41;5019079;28;20138;-78
2022/08/07 05:38:05;;;;;;;6.25;3.90;;;;;;;12.81;96.29;102671.97;4998058;28;20614;-78
2022/08/07 05:40:33;;;;;;;6.88;3.55;;;;;;;12.88;96.01;102681.53;5016850;28;20527;-79
2022/08/07 05:42:58;;;;;;;6.70;3.60;;;;;;;12.97;95.94;102680.44;4980785;28;20025;-78
2022/08/07 05:45:24;;;;;;;5.30;3.30;;;;;;;13.06;95.45;102680.19;5018700;28;20025;-78
2022/08/07 05:47:51;;;;;;;6.05;3.50;;;;;;;13.14;95.23;102680.84;5017787;28;20375;-78
2022/08/07 05:50:17;;;;;;;4.82;3.30;;;;;;;13.23;95.08;102682.38;5019452;28;20507;-78
2022/08/07 05:52:43;;;;;;;6.65;3.78;;;;;;;13.32;95.28;102683.91;4988297;28;20033;-78
2022/08/07 05:55:09;;;;;;;6.50;3.45;;;;;;;13.49;95.28;102685.25;5014011;28;20044;-78
2022/08/07 05:57:36;;;;;;;5.57;3.50;;;;;;;13.76;95.63;102690.69;5013652;28;20036;-78
2022/08/07 06:00:04;;;;;;;6.53;3.33;;;;;;;14.07;94.35;102693.31;5024498;28;20038;-78
2022/08/07 06:02:32;;;;;;;5.53;3.58;;;;;;;14.37;93.35;102701.25;5006835;28;20029;-78
2022/08/07 06:05:06;;;;;;;7.38;3.67;;;;;;;14.62;92.20;102695.13;4987679;28;20542;-78
2022/08/07 06:07:33;;;;;;;4.03;2.90;;;;;;;14.84;91.13;102701.56;4987657;28;20377;-78
2022/08/07 06:09:59;;;;;;;5.47;2.85;;;;;;;14.99;90.50;102698.34;5020108;28;20025;-78
2022/08/07 06:12:25;;;;;;;4.80;2.83;;;;;;;15.16;89.76;102695.09;5000549;28;20783;-78
2022/08/07 06:14:53;;;;;;;3.75;2.55;;;;;;;15.39;89.30;102700.53;5023815;28;20123;-78
2022/08/07 06:17:19;;;;;;;4.15;2.85;;;;;;;15.60;88.38;102691.72;4994982;28;20056;-78
2022/08/07 06:19:46;;;;;;;3.75;2.50;;;;;;;15.82;87.95;102701.63;5021704;28;21090;-78
2022/08/07 06:22:12;;;;;;;4.40;2.55;;;;;;;16.04;87.50;102710.63;5002914;28;20037;-78
2022/08/07 06:24:38;;;;;;;4.15;2.63;;;;;;;16.23;87.18;102710.78;5006873;28;20115;-78
2022/08/07 06:27:04;;;;;;;3.55;2.60;;;;;;;16.38;86.23;102707.47;5025039;28;20381;-78
2022/08/07 06:29:29;;;;;;;4.32;2.90;;;;;;;16.53;85.48;102715.81;5024400;28;20056;-78
2022/08/07 06:31:55;;;;;;;4.32;2.95;;;;;;;16.61;84.90;102713.69;5006524;28;20138;-79
2022/08/07 06:34:24;;;;;;;3.47;2.63;;;;;;;16.67;83.97;102702.72;5020478;28;20091;-79
2022/08/07 06:36:50;;;;;;;4.45;2.42;;;;;;;16.80;84.26;102708.44;5018781;28;20037;-79
2022/08/07 06:39:15;;;;;;;5.10;3.10;;;;;;;16.93;83.85;102700.75;5006199;28;20074;-79
2022/08/07 06:41:44;;;;;;;3.60;2.50;;;;;;;17.02;83.25;102702.19;5021618;28;20038;-79
2022/08/07 06:44:11;;;;;;;3.28;2.47;;;;;;;17.13;82.94;102691.03;5020872;28;20656;-78
2022/08/07 06:46:37;;;;;;;3.55;2.53;;;;;;;17.31;82.80;102685.78;5020858;28;21618;-79
2022/08/07 06:49:03;;;;;;;2.78;2.30;;;;;;;17.47;82.54;102693.97;5008480;28;20162;-79
2022/08/07 06:51:30;;;;;;;4.47;2.70;;;;;;;17.65;82.69;102694.94;4987811;28;20040;-79
2022/08/07 06:54:02;;;;;;;4.18;2.75;;;;;;;17.90;82.07;102692.00;5025879;28;20047;-80
2022/08/07 06:56:49;;;;;;;5.18;2.88;;;;;;;18.03;81.49;102694.09;5019325;28;20033;-80
2022/08/07 06:59:32;;;;;;;5.00;3.17;;;;;;;18.13;80.45;102690.06;5012228;28;20065;-79
2022/08/07 07:01:59;;;;;;;4.68;2.58;;;;;;;18.36;80.88;102687.19;5003124;28;20108;-78
2022/08/07 07:04:26;;;;;;;3.90;2.40;;;;;;;18.61;80.91;102678.78;5009063;28;20420;-79
2022/08/07 07:06:52;;;;;;;3.40;2.65;;;;;;;18.83;80.24;102678.56;5022171;28;20039;-79
2022/08/07 07:09:26;;;;;;;2.90;2.50;;;;;;;19.00;78.71;102676.78;5005979;28;20071;-79
2022/08/07 07:12:20;;;;;;;3.38;2.30;;;;;;;19.16;76.64;102673.34;5002336;28;21463;-79
2022/08/07 07:14:57;;;;;;;3.67;2.45;;;;;;;19.20;76.80;102680.28;4982883;28;20041;-79
2022/08/07 07:17:38;;;;;;;3.08;2.25;;;;;;;19.25;75.24;102672.84;5022432;28;20547;-80
2022/08/07 07:20:43;;;;;;;3.15;2.08;;;;;;;19.49;75.77;102669.78;4989813;28;20531;-78
2022/08/07 07:23:09;;;;;;;3.17;1.88;;;;;;;19.63;75.96;102682.47;5004974;28;20029;-79
2022/08/07 07:25:37;;;;;;;2.63;1.80;;;;;;;19.79;74.77;102677.09;5002598;28;20034;-79
2022/08/07 07:28:19;;;;;;;2.22;1.70;;;;;;;19.84;72.99;102668.78;4983543;28;20037;-79
2022/08/07 07:30:48;;;;;;;2.85;1.65;;;;;;;20.05;74.25;102685.56;5020379;28;20043;-79
2022/08/07 07:33:16;;;;;;;2.50;1.60;;;;;;;20.14;73.11;102684.16;5017609;28;20596;-79
2022/08/07 07:35:43;;;;;;;2.50;1.85;;;;;;;20.28;72.76;102684.25;4960729;28;20045;-79
2022/08/07 07:38:10;;;;;;;2.72;1.95;;;;;;;20.49;73.35;102690.16;5014385;28;20038;-79
2022/08/07 07:40:36;;;;;;;2.63;1.83;;;;;;;20.66;73.11;102685.63;4997163;28;20154;-79
2022/08/07 07:43:04;;;;;;;3.65;2.00;;;;;;;20.80;72.12;102694.72;5000625;28;20066;-79
2022/08/07 07:45:30;;;;;;;2.10;1.77;;;;;;;20.79;71.62;102687.56;5016786;28;20494;-79
2022/08/07 07:47:57;;;;;;;2.33;1.83;;;;;;;20.92;71.76;102679.66;5021642;28;20048;-79
2022/08/07 07:50:24;;;;;;;2.53;1.80;;;;;;;20.92;70.49;102677.81;5013390;28;20025;-79
2022/08/07 07:52:50;;;;;;;3.35;2.10;;;;;;;20.95;70.53;102664.19;5016678;28;20595;-79
2022/08/07 07:55:18;;;;;;;2.00;1.75;;;;;;;21.00;70.33;102666.59;5021818;28;20129;-80
2022/08/07 07:57:44;;;;;;;2.63;2.00;;;;;;;21.12;70.36;102673.03;5001963;28;20188;-78
2022/08/07 08:00:12;;;;;;;2.40;1.75;;;;;;;21.19;69.89;102674.38;5001975;28;20135;-79
2022/08/07 08:02:40;;;;;;;1.70;1.60;;;;;;;21.34;69.30;102671.72;5021619;28;20064;-79
2022/08/07 08:05:08;;;;;;;2.72;1.98;;;;;;;21.43;69.18;102665.75;4977504;28;20044;-80
2022/08/07 08:07:35;;;;;;;2.75;1.90;;;;;;;21.48;68.97;102669.03;5022491;28;20038;-80
2022/08/07 08:10:02;;;;;;;2.85;2.20;;;;;;;21.48;68.23;102663.63;5019068;28;20033;-80
2022/08/07 08:12:29;;;;;;;2.35;1.75;;;;;;;21.48;67.38;102663.63;4999969;28;20590;-78
2022/08/07 08:14:54;;;;;;;3.17;2.15;;;;;;;21.48;66.84;102662.75;4985018;28;20117;-80
2022/08/07 08:17:20;;;;;;;3.25;1.92;;;;;;;21.61;67.95;102662.84;5005476;28;20440;-78
2022/08/07 08:19:47;;;;;;;3.22;2.25;;;;;;;21.68;66.89;102664.19;5016389;28;20033;-80
2022/08/07 08:27:43;;;;;;;2.97;2.10;;;;;;;21.60;62.27;102667.38;5006213;28;20026;-79
2022/08/07 08:30:11;;;;;;;3.80;1.85;;;;;;;21.37;65.09;102666.13;5020501;28;20029;-80
2022/08/07 08:32:49;;;;;;;2.22;2.03;;;;;;;21.39;64.67;102665.06;5016786;28;20044;-78
2022/08/07 08:35:21;;;;;;;3.97;1.83;;;;;;;21.51;65.78;102663.44;4999822;28;20503;-78
2022/08/07 08:37:47;;;;;;;2.40;1.97;;;;;;;21.64;66.04;102663.53;5019172;28;20041;-79
2022/08/07 08:40:17;;;;;;;2.70;2.00;;;;;;;21.67;64.07;102667.81;5018144;28;20047;-79
2022/08/07 08:42:51;;;;;;;3.05;1.88;;;;;;;21.49;62.93;102664.47;5021622;28;20384;-79
2022/08/07 08:45:52;;;;;;;3.70;3.10;;;;;;;21.25;61.86;102665.94;5002592;28;20029;-79
2022/08/07 08:48:33;;;;;;;3.55;2.38;;;;;;;21.23;61.76;102670.56;5000111;28;20026;-78
2022/08/07 08:51:16;;;;;;;3.10;2.17;;;;;;;21.37;63.67;102668.81;5019236;28;20558;-79
2022/08/07 08:53:43;;;;;;;;;;;;;;;21.60;62.30;102655.72;4982906;28;20026;-79
2022/08/07 08:56:22;;;;;;;2.47;1.83;;;;;;;21.84;62.95;102654.16;5018777;28;20474;-78
2022/08/07 08:58:52;;;;;;;2.78;1.95;;;;;;;22.10;63.32;102653.41;5000377;28;20479;-80
2022/08/07 09:01:33;;;;;;;2.15;1.88;;;;;;;22.18;62.65;102653.75;5002132;28;20041;-79
2022/08/07 09:04:13;;;;;;;2.97;2.20;;;;;;;22.32;61.99;102649.25;5018709;28;20060;-79
2022/08/07 09:07:02;;;;;;;4.13;2.10;;;;;;;22.32;61.92;102650.16;5019429;28;20253;-78
2022/08/07 09:09:43;;;;;;;2.60;1.92;;;;;;;22.43;63.47;102643.16;5011453;28;20041;-79
2022/08/07 09:12:25;;;;;;;2.83;2.20;;;;;;;22.49;62.86;102645.44;4983268;28;20037;-78
2022/08/07 09:15:10;;;;;;;3.97;2.03;;;;;;;22.48;60.02;102644.56;5018813;28;20574;-79
2022/08/07 09:17:57;;;;;;;3.63;2.35;;;;;;;22.38;63.66;102648.84;4999864;28;20038;-79
2022/08/07 09:20:40;;;;;;;1.98;1.77;;;;;;;22.11;62.47;102647.91;5017231;28;20032;-79
2022/08/07 09:23:22;;;;;;;2.33;2.05;;;;;;;21.99;60.57;102643.34;4985190;28;20500;-79
2022/08/07 09:26:04;;;;;;;2.33;1.48;;;;;;;22.00;62.08;102638.81;5021207;28;20033;-79
2022/08/07 09:28:40;;;;;;;1.92;1.70;;;;;;;22.15;62.53;102645.88;5024005;28;20037;-79
2022/08/07 09:31:12;;;;;;;2.00;1.77;;;;;;;22.28;63.44;102645.91;5004663;28;20033;-79
2022/08/07 09:34:16;;;;;;;5.03;1.90;;;;;;;22.18;60.61;102650.22;5001805;28;20061;-80
2022/08/07 09:37:12;;;;;;;3.25;2.22;;;;;;;22.03;62.03;102646.69;5017979;28;20112;-79
2022/08/07 09:39:49;;;;;;;3.50;2.78;;;;;;;21.81;61.69;102645.41;5007772;28;20068;-80
2022/08/07 09:42:41;;;;;;;2.72;2.03;;;;;;;21.62;60.77;102643.88;4995820;28;20038;-80
2022/08/07 09:45:27;;;;;;;1.70;1.50;;;;;;;21.37;58.79;102649.97;5021640;28;20463;-78
2022/08/07 09:48:02;;;;;;;1.92;1.58;;;;;;;21.29;61.51;102647.75;5006079;28;20467;-79
2022/08/07 09:50:50;;;;;;;2.08;1.77;;;;;;;21.06;58.05;102641.09;5015821;28;20488;-79
2022/08/07 09:53:19;;;;;;;1.60;1.50;;;;;;;20.94;60.75;102632.84;5020328;28;20080;-79
2022/08/07 09:55:44;;;;;;;3.13;1.77;;;;;;;21.09;61.74;102635.56;5025048;28;20057;-79
2022/08/07 09:58:25;;;;;;;2.63;2.17;;;;;;;21.28;60.78;102636.13;5026050;28;20464;-79
2022/08/07 10:01:25;;;;;;;2.42;1.95;;;;;;;21.28;60.29;102630.75;4988266;28;20377;-79
2022/08/07 10:04:09;;;;;;;2.72;2.10;;;;;;;21.24;60.78;102629.19;5021967;28;20037;-79
2022/08/07 10:06:52;;;;;;;2.40;1.85;;;;;;;21.41;60.54;102625.44;5002242;28;20030;-79
2022/08/07 10:09:44;;;;;;;3.40;1.95;;;;;;;21.57;61.11;102625.31;5021364;28;20034;-79
2022/08/07 10:12:47;;;;;;;4.22;2.10;;;;;;;21.74;59.84;102618.00;5023116;28;20041;-79
2022/08/07 10:15:37;;;;;;;3.05;1.80;;;;;;;22.01;60.15;102617.13;5021718;28;20032;-79
2022/08/07 10:18:27;;;;;;;2.20;1.65;;;;;;;22.21;59.28;102612.22;5021535;28;20545;-79
2022/08/07 10:21:23;;;;;;;2.53;1.92;;;;;;;22.31;58.67;102617.88;4985604;28;20045;-80
2022/08/07 10:24:17;;;;;;;3.65;2.00;;;;;;;22.32;57.02;102611.50;5001275;28;20755;-78
2022/08/07 10:27:00;;;;;;;2.60;1.60;;;;;;;22.03;56.46;102603.56;5003186;28;20041;-79
2022/08/07 10:29:31;;;;;;;2.95;1.88;;;;;;;21.77;58.29;102606.13;5021497;28;20098;-79
2022/08/07 10:32:17;;;;;;;2.73;1.70;;;;;;;21.51;58.74;102608.69;5021615;28;20044;-80
2022/08/07 10:35:07;;;;;;;2.80;1.80;;;;;;;21.33;58.08;102606.22;5001358;28;20033;-78
2022/08/07 10:37:44;;;;;;;2.88;2.17;;;;;;;21.29;59.53;102610.03;5020377;28;20258;-80
2022/08/07 10:40:10;;;;;;;2.33;1.92;;;;;;;21.37;60.13;102602.38;5021410;28;20034;-80
2022/08/07 10:43:00;;;;;;;2.75;2.00;;;;;;;21.42;59.06;102604.75;5003998;28;20087;-80
2022/08/07 10:45:30;;;;;;;2.45;1.60;;;;;;;21.51;59.59;102595.22;5006954;28;20044;-80
2022/08/07 10:48:02;;;;;;;1.98;1.75;;;;;;;21.44;59.58;102601.00;4986439;28;20112;-79
2022/08/07 10:50:43;;;;;;;1.95;1.60;;;;;;;21.32;58.43;102598.22;5021889;28;20038;-79
2022/08/07 10:53:33;;;;;;;3.38;1.80;;;;;;;21.13;58.04;102586.78;5017845;28;20037;-80
2022/08/07 10:56:08;;;;;;;4.85;1.90;;;;;;;20.98;58.97;102587.75;5021547;28;20065;-78
2022/08/07 10:59:07;;;;;;;4.00;1.85;;;;;;;20.84;58.25;102577.84;4995147;28;20045;-78
2022/08/07 11:02:15;;;;;;;2.95;1.98;;;;;;;20.73;57.90;102582.06;5025049;28;20120;-79
2022/08/07 11:04:54;;;;;;;3.08;1.90;;;;;;;20.84;59.71;102567.06;4961771;28;20118;-79
2022/08/07 11:07:38;;;;;;;3.10;1.67;;;;;;;21.10;59.47;102572.66;5004050;28;20209;-79
2022/08/07 11:10:30;;;;;;;1.90;1.45;;;;;;;21.27;58.78;102571.59;5015389;28;20137;-79
2022/08/07 11:13:01;;;;;;;2.03;1.40;;;;;;;21.35;57.41;102565.72;4985105;28;20457;-79
2022/08/07 11:15:31;;;;;;;1.43;1.33;;;;;;;21.37;57.82;102561.09;5024170;28;20117;-78
2022/08/07 11:18:05;;;;;;;1.90;1.42;;;;;;;21.44;58.03;102567.81;5005910;28;20026;-79
2022/08/07 11:20:43;;;;;;;3.33;1.17;;;;;;;21.52;57.12;102557.38;5005195;28;20039;-79
2022/08/07 11:23:19;;;;;;;3.13;1.63;;;;;;;21.67;58.04;102558.22;5015258;28;20182;-79
2022/08/07 11:25:53;;;;;;;2.75;1.40;;;;;;;21.74;57.00;102561.41;5001819;28;20629;-79
2022/08/07 11:28:29;;;;;;;2.00;1.40;;;;;;;21.77;57.12;102561.19;5006184;28;20617;-79
2022/08/07 11:31:00;;;;;;;1.33;1.10;;;;;;;21.77;55.94;102554.94;5019172;28;20025;-80
2022/08/07 11:34:08;;;;;;;1.58;1.30;;;;;;;21.79;54.79;102551.16;5023998;28;20104;-80
2022/08/07 11:36:52;;;;;;;2.35;1.20;;;;;;;21.73;56.88;102548.03;4978962;28;20045;-79
2022/08/07 11:39:36;;;;;;;2.13;1.30;;;;;;;21.67;56.21;102550.13;5024675;28;20114;-78
2022/08/07 11:42:14;;;;;;;1.40;1.30;;;;;;;21.70;54.79;102544.56;5019830;28;20032;-78
2022/08/07 11:44:51;;;;;;;1.33;1.23;;;;;;;21.68;55.71;102541.06;5000160;28;20427;-79
2022/08/07 11:47:29;;;;;;;2.33;1.80;;;;;;;21.89;54.28;102542.50;5001138;28;20060;-80
2022/08/07 11:50:13;;;;;;;2.40;1.15;;;;;;;21.96;54.13;102543.81;4982521;28;20057;-79